Dickinson Center, New York
Current Conditions -  °F | °C
As of 3:53 PM on Thursday 20 Nov 2014 (Local Time) from KMSS Reporting Station
Clear Clear  
Wind Chill: 20°   Ceiling: Unl
Heat Index: 30°   Visibility: 10mi
Dew Point: 10°   Wind: 14mph
Humidity: 43%   Direction: 240°WSW
Pressure: 29.74"   Gusts: 25mph
Location:  44.72°N, 74.55°W
Report Text: KMSS 202053Z AUTO 24012G22KT 10SM CLR M01/M12 A2974 RMK AO2 PK WND 25028/1958 SLP078 T10111122 53014
Loading
Personal Weather Stations






























Interactive Weather Map New forecast layout! Learn more

10-Day Weather Forecast

Advertisements
Track Severe Weather on mobile